createdAt,value
2018-06-20T00:02:13.882Z,19.00
2018-06-20T00:04:46.943Z,18.80
2018-06-20T00:07:19.959Z,18.70
2018-06-20T00:09:52.968Z,18.50
2018-06-20T00:12:26.008Z,18.30
2018-06-20T00:14:59.104Z,18.10
2018-06-20T00:17:32.102Z,17.90
2018-06-20T00:20:05.107Z,17.90
2018-06-20T00:22:38.118Z,17.90
2018-06-20T00:25:11.131Z,17.90
2018-06-20T00:27:44.147Z,18.00
2018-06-20T00:30:17.158Z,18.20
2018-06-20T00:32:50.158Z,18.20
2018-06-20T00:35:23.174Z,18.20
2018-06-20T00:37:56.254Z,18.20
2018-06-20T00:40:29.255Z,18.20
2018-06-20T00:43:02.325Z,18.20
2018-06-20T00:45:35.310Z,18.30
2018-06-20T00:48:08.366Z,18.20
2018-06-20T00:50:41.403Z,18.30
2018-06-20T00:53:14.447Z,18.40
2018-06-20T00:55:58.922Z,18.40
2018-06-20T00:58:31.935Z,18.40
2018-06-20T01:01:04.958Z,18.40
2018-06-20T01:03:38.027Z,18.50
2018-06-20T01:06:11.206Z,18.50
2018-06-20T01:08:44.246Z,18.60
2018-06-20T01:11:17.339Z,18.60
2018-06-20T01:13:50.488Z,18.60
2018-06-20T01:16:23.661Z,18.60
2018-06-20T01:18:56.700Z,18.60
2018-06-20T01:21:29.727Z,18.60
2018-06-20T01:24:02.763Z,18.60
2018-06-20T01:26:35.840Z,18.60
2018-06-20T01:29:08.954Z,18.50
2018-06-20T01:31:41.963Z,18.50
2018-06-20T01:34:14.990Z,18.50
2018-06-20T01:36:48.008Z,18.40
2018-06-20T01:39:21.155Z,18.40
2018-06-20T01:41:54.164Z,18.40
2018-06-20T01:44:27.226Z,18.30
2018-06-20T01:47:00.246Z,18.30
2018-06-20T01:49:33.238Z,18.30
2018-06-20T01:52:06.239Z,18.30
2018-06-20T01:54:39.262Z,18.30
2018-06-20T01:57:12.259Z,18.30
2018-06-20T01:59:45.268Z,18.40
2018-06-20T02:02:18.255Z,18.40
2018-06-20T02:04:51.294Z,18.40
2018-06-20T02:07:24.299Z,18.40
2018-06-20T02:09:57.311Z,18.40
2018-06-20T02:12:30.352Z,18.40
2018-06-20T02:15:03.379Z,18.30
2018-06-20T02:17:36.408Z,18.30
2018-06-20T02:20:09.451Z,18.20
2018-06-20T02:22:42.444Z,18.20
2018-06-20T02:25:15.491Z,18.10
2018-06-20T02:27:48.491Z,18.10
2018-06-20T02:30:27.314Z,18.00
2018-06-20T02:33:00.328Z,17.90
2018-06-20T02:35:33.334Z,17.90
2018-06-20T02:38:06.314Z,17.90
2018-06-20T02:40:39.483Z,17.80
2018-06-20T02:43:12.494Z,17.80
2018-06-20T02:48:18.346Z,17.80
2018-06-20T02:50:51.329Z,17.80
2018-06-20T02:53:24.330Z,17.80
2018-06-20T02:55:57.319Z,17.90
2018-06-20T02:58:30.308Z,17.90
2018-06-20T03:01:03.325Z,17.90
2018-06-20T03:03:36.326Z,17.90
2018-06-20T03:06:09.324Z,18.00
2018-06-20T03:11:15.235Z,18.00
2018-06-20T03:13:48.242Z,18.00
2018-06-20T03:16:21.255Z,18.10
2018-06-20T03:18:54.875Z,18.10
2018-06-20T03:21:27.909Z,18.20
2018-06-20T03:24:00.942Z,18.20
2018-06-20T03:26:33.958Z,18.20
2018-06-20T03:29:07.003Z,18.20
2018-06-20T03:34:13.660Z,18.10
2018-06-20T03:36:46.685Z,17.90
2018-06-20T03:39:19.678Z,17.80
2018-06-20T03:41:52.694Z,17.80
2018-06-20T03:44:25.678Z,17.80
2018-06-20T03:46:58.667Z,17.80
2018-06-20T03:49:31.650Z,17.80
2018-06-20T03:52:04.660Z,17.80
2018-06-20T03:54:37.690Z,17.80
2018-06-20T03:57:10.773Z,17.90
2018-06-20T03:59:43.715Z,17.90
2018-06-20T04:02:16.743Z,17.90
2018-06-20T04:04:49.715Z,18.00
2018-06-20T04:07:22.732Z,18.00
2018-06-20T04:09:55.730Z,18.10
2018-06-20T04:12:28.724Z,18.10
2018-06-20T04:15:01.702Z,18.10
2018-06-20T04:17:34.698Z,18.20
2018-06-20T04:20:07.678Z,18.20
2018-06-20T04:22:40.680Z,18.20
2018-06-20T04:25:13.679Z,18.30
2018-06-20T04:27:46.690Z,18.40
2018-06-20T04:30:19.686Z,18.40
2018-06-20T04:32:52.702Z,18.40
2018-06-20T04:35:25.687Z,18.50
2018-06-20T04:37:58.692Z,18.50
2018-06-20T04:40:31.674Z,18.50
2018-06-20T04:43:04.682Z,18.50
2018-06-20T04:45:37.663Z,18.60
2018-06-20T04:48:10.685Z,18.60
2018-06-20T04:50:43.683Z,18.60
2018-06-20T04:53:17.019Z,18.50
2018-06-20T04:55:50.011Z,18.50
2018-06-20T04:58:23.036Z,18.50
2018-06-20T05:00:56.024Z,18.60
2018-06-20T05:03:29.014Z,18.60
2018-06-20T05:06:02.000Z,18.60
2018-06-20T05:08:35.031Z,18.60
2018-06-20T05:11:08.036Z,18.60
2018-06-20T05:13:41.046Z,18.70
2018-06-20T05:16:14.039Z,18.70
2018-06-20T05:18:47.188Z,18.80
2018-06-20T05:21:20.171Z,18.90
2018-06-20T05:23:53.171Z,19.00
2018-06-20T05:26:26.166Z,19.00
2018-06-20T05:28:59.210Z,18.90
2018-06-20T05:31:32.211Z,18.90
2018-06-20T05:34:05.256Z,19.00
2018-06-20T05:36:38.272Z,19.00
2018-06-20T05:39:12.146Z,19.00
2018-06-20T05:41:45.189Z,19.10
2018-06-20T05:44:18.179Z,19.20
2018-06-20T05:46:51.460Z,19.30
2018-06-20T05:49:24.482Z,19.30
2018-06-20T05:51:57.515Z,19.30
2018-06-20T05:54:30.667Z,19.40
2018-06-20T05:57:03.691Z,19.40
2018-06-20T05:59:36.698Z,19.40
2018-06-20T06:02:09.719Z,19.50
2018-06-20T06:04:42.727Z,19.50
2018-06-20T06:07:15.728Z,19.50
2018-06-20T06:09:48.735Z,19.60
2018-06-20T06:12:21.731Z,19.60
2018-06-20T06:14:54.739Z,19.60
2018-06-20T06:17:27.803Z,19.60
2018-06-20T06:20:00.820Z,19.60
2018-06-20T06:22:35.280Z,19.50
2018-06-20T06:25:08.366Z,19.60
2018-06-20T06:27:41.374Z,19.70
2018-06-20T06:30:14.403Z,19.70
2018-06-20T06:32:47.432Z,19.80
2018-06-20T06:35:20.439Z,19.90
2018-06-20T06:37:53.443Z,19.90
2018-06-20T06:40:26.496Z,19.90
2018-06-20T06:42:59.557Z,19.90
2018-06-20T06:45:32.590Z,19.90
2018-06-20T06:48:05.679Z,20.00
2018-06-20T06:50:38.695Z,20.10
2018-06-20T06:53:11.779Z,20.10
2018-06-20T06:55:44.822Z,20.10
2018-06-20T06:58:17.984Z,20.20
2018-06-20T07:00:51.012Z,20.20
2018-06-20T07:03:24.059Z,20.30
2018-06-20T07:05:57.245Z,20.30
2018-06-20T07:08:30.296Z,20.40
2018-06-20T07:11:03.376Z,20.40
2018-06-20T07:13:36.499Z,20.40
2018-06-20T07:16:09.596Z,20.40
2018-06-20T07:18:42.591Z,20.50
2018-06-20T07:21:15.744Z,20.50
2018-06-20T07:23:48.759Z,20.50
2018-06-20T07:26:21.931Z,20.50
2018-06-20T07:28:54.991Z,20.50
2018-06-20T07:31:28.067Z,20.60
2018-06-20T07:34:01.227Z,20.60
2018-06-20T07:36:34.146Z,20.60
2018-06-20T07:39:07.511Z,20.60
2018-06-20T07:41:40.563Z,20.70
2018-06-20T07:44:13.556Z,20.70
2018-06-20T07:46:46.675Z,20.80
2018-06-20T07:49:19.670Z,20.80
2018-06-20T07:51:52.751Z,20.90
2018-06-20T07:54:25.766Z,21.00
2018-06-20T07:56:58.872Z,21.00
2018-06-20T07:59:37.415Z,21.10
2018-06-20T08:02:27.231Z,21.20
2018-06-20T08:05:05.651Z,21.30
2018-06-20T08:07:44.061Z,21.30
2018-06-20T08:10:22.621Z,21.30
2018-06-20T08:13:01.039Z,21.40
2018-06-20T08:15:39.655Z,21.50
2018-06-20T08:18:18.127Z,21.60
2018-06-20T08:20:51.147Z,21.70
2018-06-20T08:23:24.171Z,21.90
2018-06-20T08:25:57.340Z,22.00
2018-06-20T08:28:30.367Z,22.20
2018-06-20T08:31:03.360Z,22.20
2018-06-20T08:33:36.418Z,22.30
2018-06-20T08:36:09.459Z,22.30
2018-06-20T08:38:42.472Z,22.40
2018-06-20T08:41:15.553Z,22.40
2018-06-20T08:43:48.657Z,22.50
2018-06-20T08:46:21.634Z,22.60
2018-06-20T08:48:54.646Z,22.70
2018-06-20T08:51:27.816Z,22.70
2018-06-20T08:54:00.919Z,22.80
2018-06-20T08:56:33.931Z,22.90
2018-06-20T08:59:07.104Z,23.10
2018-06-20T09:01:40.125Z,23.30
2018-06-20T09:04:18.665Z,23.40
2018-06-20T09:06:57.091Z,23.50
2018-06-20T09:09:35.654Z,23.60
2018-06-20T09:12:14.194Z,23.70
2018-06-20T09:14:52.667Z,23.60
2018-06-20T09:17:31.351Z,23.60
2018-06-20T09:20:05.671Z,23.60
2018-06-20T09:22:38.682Z,23.60
2018-06-20T09:25:11.688Z,23.60
2018-06-20T09:27:44.695Z,23.70
2018-06-20T09:30:17.716Z,23.60
2018-06-20T09:32:50.744Z,23.70
2018-06-20T09:35:23.785Z,23.80
2018-06-20T09:37:56.866Z,23.80
2018-06-20T09:43:03.155Z,23.90
2018-06-20T09:45:36.305Z,24.00
2018-06-20T09:48:09.410Z,24.00
2018-06-20T09:50:47.923Z,24.00
2018-06-20T09:53:20.923Z,24.10
2018-06-20T09:55:54.067Z,24.20
2018-06-20T09:58:27.311Z,24.30
2018-06-20T10:01:05.947Z,24.30
2018-06-20T10:03:44.510Z,24.40
2018-06-20T10:06:23.046Z,24.50
2018-06-20T10:09:01.511Z,24.40
2018-06-20T10:11:39.927Z,24.50
2018-06-20T10:14:13.326Z,24.60
2018-06-20T10:16:46.352Z,24.60
2018-06-20T10:19:19.393Z,24.50
2018-06-20T10:21:52.450Z,24.50
2018-06-20T10:24:25.812Z,24.40
2018-06-20T10:26:58.836Z,24.40
2018-06-20T10:29:31.835Z,24.60
2018-06-20T10:32:04.838Z,24.60
2018-06-20T10:34:37.866Z,24.80
2018-06-20T10:37:10.902Z,24.80
2018-06-20T10:39:43.920Z,24.80
2018-06-20T10:42:17.063Z,24.70
2018-06-20T10:44:50.123Z,24.80
2018-06-20T10:47:28.676Z,25.00
2018-06-20T10:50:01.872Z,25.10
2018-06-20T10:52:35.010Z,25.20
2018-06-20T10:55:10.247Z,25.30
2018-06-20T10:57:48.728Z,25.30
2018-06-20T11:00:27.240Z,25.20
2018-06-20T11:03:05.707Z,25.30
2018-06-20T11:05:44.171Z,25.40
2018-06-20T11:08:22.791Z,25.40
2018-06-20T11:11:01.401Z,25.30
2018-06-20T11:13:34.407Z,25.20
2018-06-20T11:16:07.473Z,25.20
2018-06-20T11:18:43.497Z,25.30
2018-06-20T11:21:16.518Z,25.30
2018-06-20T11:23:49.534Z,25.30
2018-06-20T11:26:22.636Z,25.30
2018-06-20T11:28:55.647Z,25.10
2018-06-20T11:31:28.686Z,25.10
2018-06-20T11:34:01.763Z,25.10
2018-06-20T11:36:34.780Z,25.00
2018-06-20T11:39:09.196Z,24.90
2018-06-20T11:41:42.535Z,24.90
2018-06-20T11:44:15.597Z,24.90
2018-06-20T11:46:54.192Z,24.80
2018-06-20T11:49:27.541Z,24.80
2018-06-20T11:52:00.712Z,24.80
2018-06-20T11:54:33.719Z,24.80
2018-06-20T11:57:06.728Z,24.90
2018-06-20T11:59:45.159Z,25.10
2018-06-20T12:02:23.752Z,25.10
2018-06-20T12:05:02.219Z,25.20
2018-06-20T12:10:19.227Z,25.40
2018-06-20T12:12:57.811Z,25.50
2018-06-20T12:15:36.162Z,25.50
2018-06-20T12:18:14.719Z,25.40
2018-06-20T12:20:53.330Z,25.30
2018-06-20T12:23:31.966Z,25.30
2018-06-20T12:26:10.543Z,25.20
2018-06-20T12:28:49.030Z,25.20
2018-06-20T12:31:27.459Z,25.20
2018-06-20T12:34:05.881Z,25.30
2018-06-20T12:36:44.423Z,25.40
2018-06-20T12:39:16.770Z,25.40
2018-06-20T12:41:55.334Z,25.40
2018-06-20T12:44:33.927Z,25.40
2018-06-20T12:47:10.822Z,25.50
2018-06-20T12:49:47.254Z,25.40
2018-06-20T12:52:20.270Z,25.40
2018-06-20T12:54:53.270Z,25.50
2018-06-20T12:57:26.264Z,25.50
2018-06-20T12:59:59.391Z,25.60
2018-06-20T13:02:32.419Z,25.60
2018-06-20T13:05:05.439Z,25.70
2018-06-20T13:07:38.510Z,25.70
2018-06-20T13:10:11.529Z,25.80
2018-06-20T13:12:44.583Z,25.80
2018-06-20T13:15:17.603Z,25.80
2018-06-20T13:18:53.695Z,25.90
2018-06-20T13:21:26.797Z,25.90
2018-06-20T13:23:59.778Z,25.90
2018-06-20T13:26:32.788Z,26.00
2018-06-20T13:29:05.774Z,26.20
2018-06-20T13:31:44.370Z,26.40
2018-06-20T13:34:23.005Z,26.60
2018-06-20T13:37:01.531Z,26.70
2018-06-20T13:40:39.798Z,26.80
2018-06-20T13:43:18.413Z,26.90
2018-06-20T13:45:56.947Z,27.00
2018-06-20T13:48:32.306Z,27.00
2018-06-20T13:51:05.294Z,26.90
2018-06-20T13:53:38.285Z,26.60
2018-06-20T13:56:11.338Z,26.70
2018-06-20T13:58:44.279Z,26.60
2018-06-20T14:01:17.305Z,26.60
2018-06-20T14:03:50.355Z,26.60
2018-06-20T14:06:23.340Z,26.60
2018-06-20T14:08:56.329Z,26.60
2018-06-20T14:11:29.315Z,26.60
2018-06-20T14:14:02.305Z,26.70
2018-06-20T14:16:35.281Z,26.70
2018-06-20T14:19:08.279Z,26.80
2018-06-20T14:21:42.350Z,26.80
2018-06-20T14:24:15.462Z,26.90
2018-06-20T14:26:48.596Z,26.90
2018-06-20T14:29:21.711Z,27.10
2018-06-20T14:32:00.105Z,27.10
2018-06-20T14:34:38.554Z,27.20
2018-06-20T14:37:17.053Z,27.30
2018-06-20T14:42:02.913Z,27.20
2018-06-20T14:44:35.920Z,27.20
2018-06-20T14:47:09.019Z,27.20
2018-06-20T14:49:42.147Z,27.30
2018-06-20T14:52:15.292Z,27.40
2018-06-20T14:54:48.317Z,27.40
2018-06-20T14:57:21.430Z,27.50
2018-06-20T14:59:54.538Z,27.60
2018-06-20T15:02:27.746Z,27.50
2018-06-20T15:05:00.789Z,27.60
2018-06-20T15:07:33.882Z,27.60
2018-06-20T15:10:06.987Z,27.50
2018-06-20T15:12:40.082Z,27.50
2018-06-20T15:15:13.107Z,27.60
2018-06-20T15:17:46.185Z,27.50
2018-06-20T15:20:19.299Z,27.50
2018-06-20T15:22:52.311Z,27.50
2018-06-20T15:25:32.196Z,27.50
2018-06-20T15:28:10.772Z,27.40
2018-06-20T15:30:49.227Z,27.40
2018-06-20T15:33:27.690Z,27.40
2018-06-20T15:36:06.206Z,27.30
2018-06-20T15:38:39.263Z,27.30
2018-06-20T15:41:12.337Z,27.30
2018-06-20T15:43:45.435Z,27.30
2018-06-20T15:46:18.527Z,27.20
2018-06-20T15:48:51.634Z,27.00
2018-06-20T15:51:24.741Z,26.90
2018-06-20T15:53:57.812Z,26.80
2018-06-20T15:56:30.900Z,26.90
2018-06-20T15:59:04.008Z,26.90
2018-06-20T16:01:37.064Z,27.00
2018-06-20T16:04:10.048Z,27.00
2018-06-20T16:09:21.334Z,27.30
2018-06-20T16:11:54.356Z,27.30
2018-06-20T16:14:27.373Z,27.30
2018-06-20T16:17:00.479Z,27.30
2018-06-20T16:19:38.856Z,27.20
2018-06-20T16:22:17.461Z,27.20
2018-06-20T16:24:55.930Z,27.10
2018-06-20T16:27:34.353Z,27.10
2018-06-20T16:30:12.768Z,27.10
2018-06-20T16:32:45.802Z,27.10
2018-06-20T16:35:18.841Z,27.20
2018-06-20T16:37:51.977Z,27.20
2018-06-20T16:40:25.173Z,27.30
2018-06-20T16:42:58.206Z,27.30
2018-06-20T16:45:31.215Z,27.40
2018-06-20T16:48:04.230Z,27.30
2018-06-20T16:50:37.258Z,27.30
2018-06-20T16:53:10.316Z,27.30
2018-06-20T16:55:43.322Z,27.30
2018-06-20T16:58:16.324Z,27.30
2018-06-20T17:00:49.378Z,27.30
2018-06-20T17:03:22.400Z,27.30
2018-06-20T17:05:55.449Z,27.40
2018-06-20T17:08:28.475Z,27.40
2018-06-20T17:11:01.513Z,27.50
2018-06-20T17:13:40.059Z,27.40
2018-06-20T17:16:18.655Z,27.50
2018-06-20T17:18:57.022Z,27.60
2018-06-20T17:21:35.421Z,27.60
2018-06-20T17:24:14.001Z,27.60
2018-06-20T17:26:47.074Z,27.70
2018-06-20T17:29:20.101Z,27.70
2018-06-20T17:31:53.120Z,27.60
2018-06-20T17:34:26.184Z,27.60
2018-06-20T17:36:59.207Z,27.50
2018-06-20T17:39:32.235Z,27.40
2018-06-20T17:42:05.401Z,27.40
2018-06-20T17:44:38.454Z,27.30
2018-06-20T17:47:11.454Z,27.30
2018-06-20T17:49:44.477Z,27.30
2018-06-20T17:52:17.492Z,27.20
2018-06-20T17:54:50.513Z,27.10
2018-06-20T17:57:24.562Z,27.00
2018-06-20T17:59:57.583Z,27.00
2018-06-20T18:02:30.734Z,27.00
2018-06-20T18:05:09.321Z,26.90
2018-06-20T18:07:47.858Z,26.90
2018-06-20T18:10:26.306Z,26.80
2018-06-20T18:13:04.198Z,26.70
2018-06-20T18:15:42.750Z,26.70
2018-06-20T18:18:16.188Z,26.60
2018-06-20T18:20:49.189Z,26.60
2018-06-20T18:23:22.221Z,26.60
2018-06-20T18:25:55.233Z,26.60
2018-06-20T18:28:28.230Z,26.50
2018-06-20T18:31:01.284Z,26.50
2018-06-20T18:33:34.301Z,26.40
2018-06-20T18:36:07.391Z,26.40
2018-06-20T18:41:13.420Z,26.30
2018-06-20T18:43:46.398Z,26.30
2018-06-20T18:46:19.407Z,26.20
2018-06-20T18:48:52.498Z,26.20
2018-06-20T18:51:25.427Z,26.20
2018-06-20T18:53:58.452Z,26.20
2018-06-20T18:56:31.467Z,26.10
2018-06-20T18:59:10.037Z,26.10
2018-06-20T19:01:48.558Z,26.10
2018-06-20T19:04:26.855Z,26.10
2018-06-20T19:07:05.511Z,26.00
2018-06-20T19:09:38.523Z,26.00
2018-06-20T19:12:11.541Z,26.00
2018-06-20T19:14:44.763Z,26.00
2018-06-20T19:17:17.819Z,26.00
2018-06-20T19:19:50.845Z,25.90
2018-06-20T19:22:24.001Z,25.90
2018-06-20T19:24:57.091Z,25.80
2018-06-20T19:27:30.121Z,25.80
2018-06-20T19:30:03.174Z,25.80
2018-06-20T19:32:36.208Z,25.70
2018-06-20T19:35:09.291Z,25.60
2018-06-20T19:37:43.268Z,25.60
2018-06-20T19:40:16.265Z,25.50
2018-06-20T19:42:49.309Z,25.40
2018-06-20T19:45:22.331Z,25.40
2018-06-20T19:47:55.457Z,25.30
2018-06-20T19:50:28.454Z,25.30
2018-06-20T19:53:01.523Z,25.20
2018-06-20T19:55:34.626Z,25.20
2018-06-20T19:58:07.645Z,25.10
2018-06-20T20:00:40.765Z,25.00
2018-06-20T20:03:13.803Z,24.90
2018-06-20T20:05:47.149Z,24.80
2018-06-20T20:08:20.319Z,24.70
2018-06-20T20:10:53.917Z,24.70
2018-06-20T20:13:26.979Z,24.60
2018-06-20T20:15:59.983Z,24.50
2018-06-20T20:18:33.017Z,24.50
2018-06-20T20:21:06.244Z,24.40
2018-06-20T20:23:39.459Z,24.40
2018-06-20T20:26:12.492Z,24.30
2018-06-20T20:28:45.564Z,24.30
2018-06-20T20:31:18.577Z,24.20
2018-06-20T20:33:52.441Z,24.10
2018-06-20T20:36:25.448Z,24.10
2018-06-20T20:38:58.508Z,24.00
2018-06-20T20:41:31.585Z,24.00
2018-06-20T20:44:04.977Z,23.90
2018-06-20T20:46:38.468Z,23.80
2018-06-20T20:49:12.223Z,23.70
2018-06-20T20:51:45.212Z,23.70
2018-06-20T20:54:18.244Z,23.60
2018-06-20T20:56:51.291Z,23.60
2018-06-20T20:59:24.350Z,23.50
2018-06-20T21:01:57.624Z,23.50
2018-06-20T21:04:30.995Z,23.40
2018-06-20T21:07:03.995Z,23.40
2018-06-20T21:09:37.072Z,23.30
2018-06-20T21:12:10.070Z,23.30
2018-06-20T21:14:43.097Z,23.20
2018-06-20T21:17:16.136Z,23.20
2018-06-20T21:19:49.203Z,23.10
2018-06-20T21:22:22.227Z,23.00
2018-06-20T21:24:55.238Z,23.00
2018-06-20T21:27:28.427Z,23.00
2018-06-20T21:30:01.499Z,22.90
2018-06-20T21:32:34.490Z,22.80
2018-06-20T21:35:07.621Z,22.80
2018-06-20T21:37:40.691Z,22.80
2018-06-20T21:40:13.992Z,22.70
2018-06-20T21:42:46.984Z,22.70
2018-06-20T21:45:19.992Z,22.60
2018-06-20T21:47:53.002Z,22.60
2018-06-20T21:50:26.119Z,22.50
2018-06-20T21:52:59.153Z,22.50
2018-06-20T21:55:32.193Z,22.50
2018-06-20T21:58:05.176Z,22.40
2018-06-20T22:00:38.295Z,22.40
2018-06-20T22:03:11.349Z,22.30
2018-06-20T22:05:44.371Z,22.30
2018-06-20T22:08:17.391Z,22.20
2018-06-20T22:10:50.415Z,22.20
2018-06-20T22:13:23.424Z,22.10
2018-06-20T22:15:56.440Z,22.10
2018-06-20T22:18:29.535Z,22.00
2018-06-20T22:21:02.568Z,22.00
2018-06-20T22:23:35.599Z,21.90
2018-06-20T22:26:08.678Z,21.90
2018-06-20T22:28:41.871Z,21.90
2018-06-20T22:31:14.890Z,21.80
2018-06-20T22:33:47.924Z,21.70
2018-06-20T22:36:21.011Z,21.70
2018-06-20T22:38:54.026Z,21.70
2018-06-20T22:41:27.088Z,21.60
2018-06-20T22:44:00.223Z,21.50
2018-06-20T22:46:33.316Z,21.50
2018-06-20T22:49:06.368Z,21.40
2018-06-20T22:51:39.394Z,21.40
2018-06-20T22:54:12.384Z,21.40
2018-06-20T22:56:45.447Z,21.30
2018-06-20T22:59:18.538Z,21.30
2018-06-20T23:01:51.553Z,21.30
2018-06-20T23:04:24.592Z,21.20
2018-06-20T23:06:57.584Z,21.20
2018-06-20T23:09:30.617Z,21.10
2018-06-20T23:12:03.618Z,21.10
2018-06-20T23:14:36.660Z,21.10
2018-06-20T23:17:09.804Z,21.00
2018-06-20T23:19:42.801Z,21.00
2018-06-20T23:22:15.827Z,20.90
2018-06-20T23:24:48.873Z,20.90
2018-06-20T23:27:21.872Z,20.90
2018-06-20T23:29:54.914Z,20.90
2018-06-20T23:32:27.979Z,20.80
2018-06-20T23:35:00.966Z,20.80
2018-06-20T23:37:34.048Z,20.70
2018-06-20T23:40:07.033Z,20.70
2018-06-20T23:42:40.049Z,20.60
2018-06-20T23:45:13.049Z,20.60
2018-06-20T23:47:46.063Z,20.60
2018-06-20T23:50:19.072Z,20.50
2018-06-20T23:52:52.124Z,20.50
2018-06-20T23:55:25.143Z,20.50
2018-06-20T23:57:58.294Z,20.40
